sensor_id;sensor_type;location;lat;lon;timestamp;temperature;humidity
16907;DHT22;8570;52.380;4.654;2024-03-25T00:03:51;6.60;99.90
16907;DHT22;8570;52.380;4.654;2024-03-25T00:08:27;6.60;99.90
16907;DHT22;8570;52.380;4.654;2024-03-25T00:13:46;6.60;99.90
16907;DHT22;8570;52.380;4.654;2024-03-25T00:18:55;6.50;99.90
16907;DHT22;8570;52.380;4.654;2024-03-25T00:23:59;6.50;99.90
16907;DHT22;8570;52.380;4.654;2024-03-25T00:29:04;6.50;99.90
16907;DHT22;8570;52.380;4.654;2024-03-25T00:34:37;6.50;99.90
16907;DHT22;8570;52.380;4.654;2024-03-25T00:39:44;6.40;99.90
16907;DHT22;8570;52.380;4.654;2024-03-25T00:44:52;6.40;99.90
16907;DHT22;8570;52.380;4.654;2024-03-25T00:50:02;6.40;99.90
16907;DHT22;8570;52.380;4.654;2024-03-25T00:55:10;6.40;99.90
16907;DHT22;8570;52.380;4.654;2024-03-25T01:06:42;6.30;99.90
16907;DHT22;8570;52.380;4.654;2024-03-25T01:11:53;6.30;99.90
16907;DHT22;8570;52.380;4.654;2024-03-25T01:17:23;6.20;99.90
16907;DHT22;8570;52.380;4.654;2024-03-25T01:22:48;6.20;99.90
16907;DHT22;8570;52.380;4.654;2024-03-25T01:27:52;6.20;99.90
16907;DHT22;8570;52.380;4.654;2024-03-25T01:33:17;6.10;99.90
16907;DHT22;8570;52.380;4.654;2024-03-25T01:38:25;6.00;99.90
16907;DHT22;8570;52.380;4.654;2024-03-25T01:43:27;6.00;99.90
16907;DHT22;8570;52.380;4.654;2024-03-25T01:48:29;5.90;99.90
16907;DHT22;8570;52.380;4.654;2024-03-25T01:53:35;5.90;99.90
16907;DHT22;8570;52.380;4.654;2024-03-25T01:58:41;5.90;99.90
16907;DHT22;8570;52.380;4.654;2024-03-25T02:03:54;5.90;99.90
16907;DHT22;8570;52.380;4.654;2024-03-25T02:09:17;5.90;99.90
16907;DHT22;8570;52.380;4.654;2024-03-25T02:14:47;5.90;99.90
16907;DHT22;8570;52.380;4.654;2024-03-25T02:19:54;5.90;99.90
16907;DHT22;8570;52.380;4.654;2024-03-25T02:25:00;5.90;99.90
16907;DHT22;8570;52.380;4.654;2024-03-25T02:30:10;5.90;99.90
16907;DHT22;8570;52.380;4.654;2024-03-25T02:35:18;5.80;99.90
16907;DHT22;8570;52.380;4.654;2024-03-25T02:40:20;5.80;99.90
16907;DHT22;8570;52.380;4.654;2024-03-25T02:45:25;5.80;99.90
16907;DHT22;8570;52.380;4.654;2024-03-25T02:50:27;5.80;99.90
16907;DHT22;8570;52.380;4.654;2024-03-25T02:55:38;5.80;99.90
16907;DHT22;8570;52.380;4.654;2024-03-25T03:00:41;5.70;99.90
16907;DHT22;8570;52.380;4.654;2024-03-25T03:05:45;5.70;99.90
16907;DHT22;8570;52.380;4.654;2024-03-25T03:10:47;5.70;99.90
16907;DHT22;8570;52.380;4.654;2024-03-25T03:16:04;5.60;99.90
16907;DHT22;8570;52.380;4.654;2024-03-25T03:21:06;5.60;99.90
16907;DHT22;8570;52.380;4.654;2024-03-25T03:50:28;5.20;99.90
16907;DHT22;8570;52.380;4.654;2024-03-25T04:20:49;4.80;99.90
16907;DHT22;8570;52.380;4.654;2024-03-25T04:32:38;4.70;99.90
16907;DHT22;8570;52.380;4.654;2024-03-25T04:37:58;4.60;99.90
16907;DHT22;8570;52.380;4.654;2024-03-25T04:43:10;4.60;99.90
16907;DHT22;8570;52.380;4.654;2024-03-25T04:48:22;4.60;99.90
16907;DHT22;8570;52.380;4.654;2024-03-25T04:53:27;4.50;99.90
16907;DHT22;8570;52.380;4.654;2024-03-25T04:58:31;4.50;99.90
16907;DHT22;8570;52.380;4.654;2024-03-25T05:03:57;4.50;99.90
16907;DHT22;8570;52.380;4.654;2024-03-25T05:09:12;4.40;99.90
16907;DHT22;8570;52.380;4.654;2024-03-25T05:14:22;4.40;99.90
16907;DHT22;8570;52.380;4.654;2024-03-25T05:19:27;4.40;99.90
16907;DHT22;8570;52.380;4.654;2024-03-25T05:30:30;4.30;99.90
16907;DHT22;8570;52.380;4.654;2024-03-25T05:41:43;4.30;99.90
16907;DHT22;8570;52.380;4.654;2024-03-25T05:46:46;4.30;99.90
16907;DHT22;8570;52.380;4.654;2024-03-25T05:52:12;4.30;99.90
16907;DHT22;8570;52.380;4.654;2024-03-25T05:57:47;4.30;99.90
16907;DHT22;8570;52.380;4.654;2024-03-25T06:10:17;4.40;99.90
16907;DHT22;8570;52.380;4.654;2024-03-25T06:15:38;4.40;99.90
16907;DHT22;8570;52.380;4.654;2024-03-25T06:20:47;4.40;99.90
16907;DHT22;8570;52.380;4.654;2024-03-25T06:25:48;4.40;99.90
16907;DHT22;8570;52.380;4.654;2024-03-25T06:31:20;4.40;99.90
16907;DHT22;8570;52.380;4.654;2024-03-25T06:36:40;4.40;99.90
16907;DHT22;8570;52.380;4.654;2024-03-25T07:59:02;6.10;99.90
16907;DHT22;8570;52.380;4.654;2024-03-25T08:04:11;6.40;99.90
16907;DHT22;8570;52.380;4.654;2024-03-25T08:21:38;6.70;99.90
16907;DHT22;8570;52.380;4.654;2024-03-25T08:26:58;6.80;99.90
16907;DHT22;8570;52.380;4.654;2024-03-25T08:32:12;6.90;99.90
16907;DHT22;8570;52.380;4.654;2024-03-25T08:37:26;7.00;99.90
16907;DHT22;8570;52.380;4.654;2024-03-25T08:49:23;7.40;99.90
16907;DHT22;8570;52.380;4.654;2024-03-25T09:07:08;8.70;99.90
16907;DHT22;8570;52.380;4.654;2024-03-25T09:12:40;9.20;99.90
16907;DHT22;8570;52.380;4.654;2024-03-25T09:18:07;9.70;99.90
16907;DHT22;8570;52.380;4.654;2024-03-25T09:23:33;10.00;99.90
16907;DHT22;8570;52.380;4.654;2024-03-25T09:29:12;10.40;99.90
16907;DHT22;8570;52.380;4.654;2024-03-25T09:35:00;10.60;99.90
16907;DHT22;8570;52.380;4.654;2024-03-25T09:40:13;10.70;99.90
16907;DHT22;8570;52.380;4.654;2024-03-25T09:45:41;10.90;99.90
16907;DHT22;8570;52.380;4.654;2024-03-25T09:50:54;11.00;99.90
16907;DHT22;8570;52.380;4.654;2024-03-25T10:02:42;11.40;99.90
16907;DHT22;8570;52.380;4.654;2024-03-25T10:07:42;11.60;99.90
16907;DHT22;8570;52.380;4.654;2024-03-25T10:12:43;11.80;99.90
16907;DHT22;8570;52.380;4.654;2024-03-25T10:17:45;11.90;99.90
16907;DHT22;8570;52.380;4.654;2024-03-25T10:22:46;11.80;99.90
16907;DHT22;8570;52.380;4.654;2024-03-25T10:27:53;11.80;99.90
16907;DHT22;8570;52.380;4.654;2024-03-25T10:32:59;11.90;99.90
16907;DHT22;8570;52.380;4.654;2024-03-25T10:38:01;12.00;99.90
16907;DHT22;8570;52.380;4.654;2024-03-25T10:43:03;12.10;99.90
16907;DHT22;8570;52.380;4.654;2024-03-25T10:48:09;12.20;99.90
16907;DHT22;8570;52.380;4.654;2024-03-25T10:53:12;12.20;99.90
16907;DHT22;8570;52.380;4.654;2024-03-25T10:58:15;12.40;99.90
16907;DHT22;8570;52.380;4.654;2024-03-25T11:03:18;12.60;99.90
16907;DHT22;8570;52.380;4.654;2024-03-25T11:08:19;12.90;99.90
16907;DHT22;8570;52.380;4.654;2024-03-25T11:13:20;13.20;99.90
16907;DHT22;8570;52.380;4.654;2024-03-25T11:18:24;13.40;99.90
16907;DHT22;8570;52.380;4.654;2024-03-25T11:23:25;13.60;99.90
16907;DHT22;8570;52.380;4.654;2024-03-25T11:28:29;13.80;99.90
16907;DHT22;8570;52.380;4.654;2024-03-25T11:33:31;14.10;99.90
16907;DHT22;8570;52.380;4.654;2024-03-25T11:38:32;14.30;99.90
16907;DHT22;8570;52.380;4.654;2024-03-25T11:43:33;14.40;99.90
16907;DHT22;8570;52.380;4.654;2024-03-25T11:48:36;14.30;99.90
16907;DHT22;8570;52.380;4.654;2024-03-25T11:53:37;14.30;99.90
16907;DHT22;8570;52.380;4.654;2024-03-25T11:58:38;14.50;99.90
16907;DHT22;8570;52.380;4.654;2024-03-25T12:03:41;14.70;99.90
16907;DHT22;8570;52.380;4.654;2024-03-25T12:08:42;14.50;99.90
16907;DHT22;8570;52.380;4.654;2024-03-25T12:13:44;14.20;99.90
16907;DHT22;8570;52.380;4.654;2024-03-25T12:18:47;14.20;99.90
16907;DHT22;8570;52.380;4.654;2024-03-25T12:23:48;14.40;99.90
16907;DHT22;8570;52.380;4.654;2024-03-25T12:28:49;14.60;99.90
16907;DHT22;8570;52.380;4.654;2024-03-25T12:33:51;14.70;99.90
16907;DHT22;8570;52.380;4.654;2024-03-25T12:38:55;14.80;99.90
16907;DHT22;8570;52.380;4.654;2024-03-25T12:43:56;14.90;99.90
16907;DHT22;8570;52.380;4.654;2024-03-25T12:48:59;14.90;99.90
16907;DHT22;8570;52.380;4.654;2024-03-25T12:53:59;15.00;99.90
16907;DHT22;8570;52.380;4.654;2024-03-25T12:59:00;15.20;99.90
16907;DHT22;8570;52.380;4.654;2024-03-25T13:04:03;15.60;99.90
16907;DHT22;8570;52.380;4.654;2024-03-25T13:09:06;15.70;99.90
16907;DHT22;8570;52.380;4.654;2024-03-25T13:14:07;15.70;99.90
16907;DHT22;8570;52.380;4.654;2024-03-25T13:19:10;15.60;99.90
16907;DHT22;8570;52.380;4.654;2024-03-25T13:24:10;15.60;99.90
16907;DHT22;8570;52.380;4.654;2024-03-25T13:29:11;15.80;99.90
16907;DHT22;8570;52.380;4.654;2024-03-25T13:34:14;15.90;99.90
16907;DHT22;8570;52.380;4.654;2024-03-25T13:39:14;15.70;99.90
16907;DHT22;8570;52.380;4.654;2024-03-25T13:44:15;15.40;99.90
16907;DHT22;8570;52.380;4.654;2024-03-25T13:49:17;15.30;99.90
16907;DHT22;8570;52.380;4.654;2024-03-25T13:54:18;15.20;99.90
16907;DHT22;8570;52.380;4.654;2024-03-25T13:59:19;15.10;99.90
16907;DHT22;8570;52.380;4.654;2024-03-25T14:04:21;15.10;99.60
16907;DHT22;8570;52.380;4.654;2024-03-25T14:09:26;15.20;99.90
16907;DHT22;8570;52.380;4.654;2024-03-25T14:14:30;15.30;99.90
16907;DHT22;8570;52.380;4.654;2024-03-25T14:19:33;15.50;99.90
16907;DHT22;8570;52.380;4.654;2024-03-25T14:24:34;15.60;99.90
16907;DHT22;8570;52.380;4.654;2024-03-25T14:29:35;15.70;99.90
16907;DHT22;8570;52.380;4.654;2024-03-25T14:34:37;15.80;99.80
16907;DHT22;8570;52.380;4.654;2024-03-25T14:39:38;15.90;99.30
16907;DHT22;8570;52.380;4.654;2024-03-25T14:44:39;16.00;98.90
16907;DHT22;8570;52.380;4.654;2024-03-25T14:49:41;16.00;98.50
16907;DHT22;8570;52.380;4.654;2024-03-25T14:54:42;16.00;98.20
16907;DHT22;8570;52.380;4.654;2024-03-25T14:59:43;15.80;97.90
16907;DHT22;8570;52.380;4.654;2024-03-25T15:04:46;15.70;98.40
16907;DHT22;8570;52.380;4.654;2024-03-25T15:09:46;15.60;97.00
16907;DHT22;8570;52.380;4.654;2024-03-25T15:14:47;15.50;97.00
16907;DHT22;8570;52.380;4.654;2024-03-25T15:19:50;15.40;96.90
16907;DHT22;8570;52.380;4.654;2024-03-25T15:24:51;15.30;97.00
16907;DHT22;8570;52.380;4.654;2024-03-25T15:29:51;15.20;97.00
16907;DHT22;8570;52.380;4.654;2024-03-25T15:34:54;15.00;97.30
16907;DHT22;8570;52.380;4.654;2024-03-25T15:39:54;14.80;97.70
16907;DHT22;8570;52.380;4.654;2024-03-25T15:44:56;14.70;98.10
16907;DHT22;8570;52.380;4.654;2024-03-25T15:49:58;14.60;97.80
16907;DHT22;8570;52.380;4.654;2024-03-25T15:54:59;14.50;97.90
16907;DHT22;8570;52.380;4.654;2024-03-25T16:00:00;14.30;97.90
16907;DHT22;8570;52.380;4.654;2024-03-25T16:05:02;14.20;98.00
16907;DHT22;8570;52.380;4.654;2024-03-25T16:10:04;14.20;98.40
16907;DHT22;8570;52.380;4.654;2024-03-25T16:15:05;14.10;98.10
16907;DHT22;8570;52.380;4.654;2024-03-25T16:20:09;14.00;97.70
16907;DHT22;8570;52.380;4.654;2024-03-25T16:25:10;13.90;97.70
16907;DHT22;8570;52.380;4.654;2024-03-25T16:30:12;13.80;98.00
16907;DHT22;8570;52.380;4.654;2024-03-25T16:35:15;13.70;98.40
16907;DHT22;8570;52.380;4.654;2024-03-25T16:40:16;13.60;98.30
16907;DHT22;8570;52.380;4.654;2024-03-25T16:45:17;13.50;98.80
16907;DHT22;8570;52.380;4.654;2024-03-25T16:50:19;13.30;98.30
16907;DHT22;8570;52.380;4.654;2024-03-25T16:55:20;13.20;98.60
16907;DHT22;8570;52.380;4.654;2024-03-25T17:00:21;13.10;98.60
16907;DHT22;8570;52.380;4.654;2024-03-25T17:05:23;13.00;98.80
16907;DHT22;8570;52.380;4.654;2024-03-25T17:10:24;12.90;98.70
16907;DHT22;8570;52.380;4.654;2024-03-25T17:15:25;12.70;98.90
16907;DHT22;8570;52.380;4.654;2024-03-25T17:20:28;12.60;99.10
16907;DHT22;8570;52.380;4.654;2024-03-25T17:25:29;12.50;99.30
16907;DHT22;8570;52.380;4.654;2024-03-25T17:30:30;12.30;99.30
16907;DHT22;8570;52.380;4.654;2024-03-25T17:35:32;12.30;99.50
16907;DHT22;8570;52.380;4.654;2024-03-25T17:40:33;12.10;99.70
16907;DHT22;8570;52.380;4.654;2024-03-25T17:45:36;12.00;99.90
16907;DHT22;8570;52.380;4.654;2024-03-25T17:50:38;11.90;99.90
16907;DHT22;8570;52.380;4.654;2024-03-25T17:55:39;11.80;99.90
16907;DHT22;8570;52.380;4.654;2024-03-25T18:00:40;11.70;99.90
16907;DHT22;8570;52.380;4.654;2024-03-25T18:05:42;11.60;99.90
16907;DHT22;8570;52.380;4.654;2024-03-25T18:10:43;11.50;99.90
16907;DHT22;8570;52.380;4.654;2024-03-25T18:15:45;11.40;99.90
16907;DHT22;8570;52.380;4.654;2024-03-25T18:20:50;11.30;99.90
16907;DHT22;8570;52.380;4.654;2024-03-25T18:26:28;11.20;99.90
16907;DHT22;8570;52.380;4.654;2024-03-25T18:32:10;11.00;99.90
16907;DHT22;8570;52.380;4.654;2024-03-25T18:37:28;10.90;99.90
16907;DHT22;8570;52.380;4.654;2024-03-25T18:42:35;10.80;99.90
16907;DHT22;8570;52.380;4.654;2024-03-25T18:47:46;10.70;99.90
16907;DHT22;8570;52.380;4.654;2024-03-25T19:04:34;10.40;99.90
16907;DHT22;8570;52.380;4.654;2024-03-25T19:16:42;10.30;99.90
16907;DHT22;8570;52.380;4.654;2024-03-25T19:32:50;10.00;99.90
16907;DHT22;8570;52.380;4.654;2024-03-25T19:44:30;9.90;99.90
16907;DHT22;8570;52.380;4.654;2024-03-25T19:55:58;9.70;99.90
16907;DHT22;8570;52.380;4.654;2024-03-25T20:01:51;9.60;99.90
16907;DHT22;8570;52.380;4.654;2024-03-25T20:07:38;9.50;99.90
16907;DHT22;8570;52.380;4.654;2024-03-25T20:35:18;9.20;99.90
16907;DHT22;8570;52.380;4.654;2024-03-25T20:40:22;9.20;99.90
16907;DHT22;8570;52.380;4.654;2024-03-25T20:51:47;9.10;99.90
16907;DHT22;8570;52.380;4.654;2024-03-25T20:57:15;9.10;99.90
16907;DHT22;8570;52.380;4.654;2024-03-25T21:02:36;9.10;99.90
16907;DHT22;8570;52.380;4.654;2024-03-25T21:08:01;9.00;99.90
16907;DHT22;8570;52.380;4.654;2024-03-25T21:13:05;9.00;99.90
16907;DHT22;8570;52.380;4.654;2024-03-25T21:18:06;9.00;99.90
16907;DHT22;8570;52.380;4.654;2024-03-25T21:23:08;8.90;99.90
16907;DHT22;8570;52.380;4.654;2024-03-25T21:28:09;8.90;99.90
16907;DHT22;8570;52.380;4.654;2024-03-25T21:33:10;8.90;99.90
16907;DHT22;8570;52.380;4.654;2024-03-25T21:44:25;8.80;99.90
16907;DHT22;8570;52.380;4.654;2024-03-25T21:49:57;8.80;99.90
16907;DHT22;8570;52.380;4.654;2024-03-25T21:55:10;8.80;99.90
16907;DHT22;8570;52.380;4.654;2024-03-25T22:00:24;8.70;99.90
16907;DHT22;8570;52.380;4.654;2024-03-25T22:12:07;8.70;99.90
16907;DHT22;8570;52.380;4.654;2024-03-25T22:17:17;8.60;99.90
16907;DHT22;8570;52.380;4.654;2024-03-25T22:22:28;8.60;99.90
16907;DHT22;8570;52.380;4.654;2024-03-25T22:27:55;8.60;99.90
16907;DHT22;8570;52.380;4.654;2024-03-25T22:55:57;8.40;99.90
16907;DHT22;8570;52.380;4.654;2024-03-25T23:01:26;8.40;99.90
16907;DHT22;8570;52.380;4.654;2024-03-25T23:06:27;8.40;99.90
16907;DHT22;8570;52.380;4.654;2024-03-25T23:11:31;8.30;99.90
16907;DHT22;8570;52.380;4.654;2024-03-25T23:16:35;8.30;99.90
16907;DHT22;8570;52.380;4.654;2024-03-25T23:21:36;8.30;99.90
16907;DHT22;8570;52.380;4.654;2024-03-25T23:26:38;8.30;99.90
16907;DHT22;8570;52.380;4.654;2024-03-25T23:31:39;8.20;99.90
16907;DHT22;8570;52.380;4.654;2024-03-25T23:36:58;8.20;99.90
16907;DHT22;8570;52.380;4.654;2024-03-25T23:42:03;8.10;99.90
16907;DHT22;8570;52.380;4.654;2024-03-25T23:47:04;8.10;99.90
16907;DHT22;8570;52.380;4.654;2024-03-25T23:52:05;8.00;99.90
16907;DHT22;8570;52.380;4.654;2024-03-25T23:57:09;8.00;99.90
